createdAt,value
2023-04-07T00:00:34.717Z,6.31
2023-04-07T00:01:34.685Z,6.33
2023-04-07T00:02:34.650Z,6.33
2023-04-07T00:03:34.730Z,6.33
2023-04-07T00:04:34.581Z,6.33
2023-04-07T00:05:34.546Z,6.33
2023-04-07T00:06:34.573Z,6.33
2023-04-07T00:07:42.024Z,6.34
2023-04-07T00:08:35.485Z,6.33
2023-04-07T00:09:34.488Z,6.31
2023-04-07T00:10:34.495Z,6.33
2023-04-07T00:11:34.718Z,6.33
2023-04-07T00:12:34.518Z,6.34
2023-04-07T00:13:34.547Z,6.33
2023-04-07T00:14:34.499Z,6.34
2023-04-07T00:15:34.452Z,6.33
2023-04-07T00:16:34.400Z,6.34
2023-04-07T00:17:34.467Z,6.36
2023-04-07T00:18:34.418Z,6.34
2023-04-07T00:19:34.397Z,6.34
2023-04-07T00:20:34.452Z,6.36
2023-04-07T00:21:34.394Z,6.34
2023-04-07T00:22:34.382Z,6.37
2023-04-07T00:23:34.357Z,6.38
2023-04-07T00:24:34.938Z,6.37
2023-04-07T00:25:34.365Z,6.37
2023-04-07T00:26:34.335Z,6.34
2023-04-07T00:27:34.519Z,6.36
2023-04-07T00:28:34.281Z,6.36
2023-04-07T00:29:34.308Z,6.33
2023-04-07T00:30:34.272Z,6.34
2023-04-07T00:31:34.293Z,6.33
2023-04-07T00:32:35.346Z,6.33
2023-04-07T00:33:34.252Z,6.33
2023-04-07T00:34:34.228Z,6.31
2023-04-07T00:35:34.304Z,6.31
2023-04-07T00:36:34.175Z,6.33
2023-04-07T00:37:34.227Z,6.31
2023-04-07T00:38:34.160Z,6.31
2023-04-07T00:39:34.223Z,6.31
2023-04-07T00:40:34.304Z,6.31
2023-04-07T00:41:34.154Z,6.33
2023-04-07T00:42:34.173Z,6.34
2023-04-07T00:43:34.141Z,6.34
2023-04-07T00:44:34.116Z,6.36
2023-04-07T00:45:34.154Z,6.36
2023-04-07T00:46:34.128Z,6.37
2023-04-07T00:47:34.472Z,6.37
2023-04-07T00:48:34.348Z,6.38
2023-04-07T00:49:34.146Z,6.37
2023-04-07T00:50:34.026Z,6.38
2023-04-07T00:51:34.048Z,6.38
2023-04-07T00:52:34.076Z,6.37
2023-04-07T00:53:34.007Z,6.37
2023-04-07T00:54:33.982Z,6.38
2023-04-07T00:55:34.059Z,6.37
2023-04-07T00:56:33.959Z,6.37
2023-04-07T00:57:34.011Z,6.38
2023-04-07T00:58:33.974Z,6.37
2023-04-07T00:59:33.972Z,6.38
2023-04-07T01:00:33.917Z,6.40
2023-04-07T01:01:34.065Z,6.38
2023-04-07T01:02:34.176Z,6.38
2023-04-07T01:03:34.529Z,6.38
2023-04-07T01:04:34.030Z,6.40
2023-04-07T01:05:33.888Z,6.38
2023-04-07T01:06:33.845Z,6.38
2023-04-07T01:07:33.902Z,6.38
2023-04-07T01:08:34.081Z,6.37
2023-04-07T01:09:33.870Z,6.41
2023-04-07T01:10:33.913Z,6.40
2023-04-07T01:11:33.839Z,6.40
2023-04-07T01:12:33.841Z,6.40
2023-04-07T01:13:34.010Z,6.40
2023-04-07T01:14:33.850Z,6.40
2023-04-07T01:15:33.782Z,6.36
2023-04-07T01:16:33.793Z,6.34
2023-04-07T01:17:33.777Z,6.34
2023-04-07T01:18:33.751Z,6.36
2023-04-07T01:19:33.754Z,6.34
2023-04-07T01:20:33.706Z,6.37
2023-04-07T01:21:34.173Z,6.36
2023-04-07T01:22:33.669Z,6.36
2023-04-07T01:23:33.714Z,6.34
2023-04-07T01:24:33.712Z,6.34
2023-04-07T01:25:33.660Z,6.34
2023-04-07T01:26:33.719Z,6.33
2023-04-07T01:27:33.702Z,6.34
2023-04-07T01:28:33.673Z,6.36
2023-04-07T01:29:33.700Z,6.34
2023-04-07T01:30:33.617Z,6.33
2023-04-07T01:31:33.656Z,6.37
2023-04-07T01:32:33.655Z,6.34
2023-04-07T01:33:41.129Z,6.33
2023-04-07T01:34:33.521Z,6.33
2023-04-07T01:35:33.535Z,6.33
2023-04-07T01:36:33.532Z,6.33
2023-04-07T01:37:33.527Z,6.34
2023-04-07T01:38:33.529Z,6.34
2023-04-07T01:39:33.492Z,6.36
2023-04-07T01:40:33.547Z,6.36
2023-04-07T01:41:33.479Z,6.34
2023-04-07T01:42:34.078Z,6.36
2023-04-07T01:43:33.484Z,6.36
2023-04-07T01:44:33.434Z,6.34
2023-04-07T01:45:33.448Z,6.36
2023-04-07T01:46:33.461Z,6.36
2023-04-07T01:47:33.505Z,6.36
2023-04-07T01:48:33.389Z,6.34
2023-04-07T01:49:34.396Z,6.37
2023-04-07T01:50:33.351Z,6.36
2023-04-07T01:51:33.361Z,6.37
2023-04-07T01:52:33.422Z,6.37
2023-04-07T01:53:33.368Z,6.40
2023-04-07T01:54:33.307Z,6.38
2023-04-07T01:55:33.406Z,6.40
2023-04-07T01:56:33.285Z,6.41
2023-04-07T01:57:33.331Z,6.40
2023-04-07T01:58:33.288Z,6.40
2023-04-07T01:59:33.281Z,6.40
2023-04-07T02:00:33.245Z,6.37
2023-04-07T02:01:33.369Z,6.37
2023-04-07T02:02:34.287Z,6.37
2023-04-07T02:03:34.014Z,6.37
2023-04-07T02:04:33.218Z,6.38
2023-04-07T02:05:33.214Z,6.38
2023-04-07T02:06:33.310Z,6.38
2023-04-07T02:07:33.181Z,6.37
2023-04-07T02:08:33.245Z,6.38
2023-04-07T02:09:33.226Z,6.37
2023-04-07T02:10:33.248Z,6.38
2023-04-07T02:11:33.185Z,6.38
2023-04-07T02:12:33.141Z,6.40
2023-04-07T02:13:33.122Z,6.41
2023-04-07T02:14:33.160Z,6.41
2023-04-07T02:15:33.069Z,6.41
2023-04-07T02:16:33.106Z,6.43
2023-04-07T02:17:33.094Z,6.38
2023-04-07T02:18:33.077Z,6.36
2023-04-07T02:19:33.243Z,6.36
2023-04-07T02:20:33.070Z,6.31
2023-04-07T02:21:32.996Z,6.33
2023-04-07T02:22:33.024Z,6.33
2023-04-07T02:23:32.994Z,6.34
2023-04-07T02:24:33.080Z,6.36
2023-04-07T02:25:32.971Z,6.36
2023-04-07T02:26:34.874Z,6.36
2023-04-07T02:27:32.982Z,6.36
2023-04-07T02:28:32.945Z,6.37
2023-04-07T02:29:33.372Z,6.37
2023-04-07T02:30:33.020Z,6.37
2023-04-07T02:31:33.014Z,6.38
2023-04-07T02:32:32.949Z,6.38
2023-04-07T02:33:32.916Z,6.40
2023-04-07T02:34:32.880Z,6.41
2023-04-07T02:35:32.847Z,6.40
2023-04-07T02:36:32.991Z,6.38
2023-04-07T02:37:32.815Z,6.37
2023-04-07T02:38:32.853Z,6.36
2023-04-07T02:39:32.831Z,6.33
2023-04-07T02:40:32.840Z,6.31
2023-04-07T02:41:32.788Z,6.31
2023-04-07T02:42:32.799Z,6.33
2023-04-07T02:43:32.770Z,6.30
2023-04-07T02:44:32.805Z,6.30
2023-04-07T02:45:32.752Z,6.31
2023-04-07T02:46:32.786Z,6.33
2023-04-07T02:47:32.751Z,6.33
2023-04-07T02:48:32.741Z,6.33
2023-04-07T02:49:32.697Z,6.34
2023-04-07T02:50:33.545Z,6.36
2023-04-07T02:51:32.710Z,6.36
2023-04-07T02:52:32.680Z,6.37
2023-04-07T02:53:32.675Z,6.38
2023-04-07T02:54:32.691Z,6.38
2023-04-07T02:55:32.705Z,6.40
2023-04-07T02:56:32.723Z,6.40
2023-04-07T02:57:32.601Z,6.40
2023-04-07T02:58:32.626Z,6.40
2023-04-07T02:59:32.577Z,6.41
2023-04-07T03:00:32.587Z,6.41
2023-04-07T03:01:32.634Z,6.41
2023-04-07T03:02:32.762Z,6.41
2023-04-07T03:03:32.591Z,6.41
2023-04-07T03:04:32.585Z,6.43
2023-04-07T03:05:32.548Z,6.41
2023-04-07T03:06:32.549Z,6.41
2023-04-07T03:07:32.476Z,6.41
2023-04-07T03:08:32.483Z,6.40
2023-04-07T03:09:32.497Z,6.41
2023-04-07T03:10:32.503Z,6.41
2023-04-07T03:11:32.517Z,6.41
2023-04-07T03:12:32.506Z,6.41
2023-04-07T03:13:32.411Z,6.40
2023-04-07T03:14:32.431Z,6.41
2023-04-07T03:15:32.508Z,6.41
2023-04-07T03:16:32.440Z,6.40
2023-04-07T03:17:32.450Z,6.41
2023-04-07T03:18:32.417Z,6.43
2023-04-07T03:19:32.337Z,6.43
2023-04-07T03:20:32.374Z,6.40
2023-04-07T03:21:32.327Z,6.43
2023-04-07T03:22:32.410Z,6.44
2023-04-07T03:23:32.309Z,6.44
2023-04-07T03:24:32.332Z,6.44
2023-04-07T03:25:33.072Z,6.43
2023-04-07T03:26:32.360Z,6.46
2023-04-07T03:27:32.265Z,6.46
2023-04-07T03:28:32.257Z,6.46
2023-04-07T03:29:32.267Z,6.46
2023-04-07T03:30:32.299Z,6.43
2023-04-07T03:31:32.240Z,6.44
2023-04-07T03:32:32.304Z,6.44
2023-04-07T03:33:32.195Z,6.43
2023-04-07T03:34:32.206Z,6.43
2023-04-07T03:35:32.208Z,6.44
2023-04-07T03:36:32.193Z,6.46
2023-04-07T03:37:32.155Z,6.43
2023-04-07T03:38:32.155Z,6.43
2023-04-07T03:39:32.187Z,6.43
2023-04-07T03:40:32.136Z,6.40
2023-04-07T03:41:32.087Z,6.40
2023-04-07T03:42:32.138Z,6.40
2023-04-07T03:43:32.080Z,6.40
2023-04-07T03:44:32.098Z,6.40
2023-04-07T03:45:32.594Z,6.41
2023-04-07T03:46:32.086Z,6.40
2023-04-07T03:47:32.083Z,6.40
2023-04-07T03:48:32.079Z,6.41
2023-04-07T03:49:31.994Z,6.43
2023-04-07T03:50:32.036Z,6.43
2023-04-07T03:51:32.901Z,6.43
2023-04-07T03:52:32.062Z,6.43
2023-04-07T03:53:31.989Z,6.44
2023-04-07T03:54:32.021Z,6.44
2023-04-07T03:55:31.965Z,6.44
2023-04-07T03:56:31.944Z,6.46
2023-04-07T03:57:32.345Z,6.44
2023-04-07T03:58:31.939Z,6.46
2023-04-07T03:59:31.885Z,6.48
2023-04-07T04:00:31.931Z,6.44
2023-04-07T04:01:31.901Z,6.46
2023-04-07T04:02:32.018Z,6.43
2023-04-07T04:03:32.021Z,6.40
2023-04-07T04:04:31.962Z,6.38
2023-04-07T04:05:32.832Z,6.38
2023-04-07T04:06:31.859Z,6.38
2023-04-07T04:07:31.802Z,6.38
2023-04-07T04:08:31.850Z,6.37
2023-04-07T04:09:31.783Z,6.36
2023-04-07T04:10:31.809Z,6.36
2023-04-07T04:11:31.786Z,6.37
2023-04-07T04:12:32.013Z,6.37
2023-04-07T04:13:31.753Z,6.37
2023-04-07T04:14:31.829Z,6.37
2023-04-07T04:15:31.729Z,6.37
2023-04-07T04:16:31.802Z,6.36
2023-04-07T04:17:31.737Z,6.36
2023-04-07T04:18:31.768Z,6.36
2023-04-07T04:19:31.677Z,6.36
2023-04-07T04:20:32.077Z,6.37
2023-04-07T04:21:31.648Z,6.37
2023-04-07T04:22:31.656Z,6.38
2023-04-07T04:23:31.663Z,6.37
2023-04-07T04:24:31.632Z,6.37
2023-04-07T04:25:32.447Z,6.38
2023-04-07T04:26:31.627Z,6.37
2023-04-07T04:27:31.660Z,6.38
2023-04-07T04:28:31.608Z,6.38
2023-04-07T04:29:32.901Z,6.37
2023-04-07T04:30:31.620Z,6.34
2023-04-07T04:31:31.612Z,6.33
2023-04-07T04:32:31.571Z,6.31
2023-04-07T04:33:32.424Z,6.30
2023-04-07T04:34:31.576Z,6.31
2023-04-07T04:35:31.498Z,6.31
2023-04-07T04:36:31.532Z,6.31
2023-04-07T04:37:31.497Z,6.31
2023-04-07T04:38:31.474Z,6.34
2023-04-07T04:39:31.448Z,6.34
2023-04-07T04:40:31.490Z,6.34
2023-04-07T04:41:31.444Z,6.36
2023-04-07T04:42:31.436Z,6.34
2023-04-07T04:43:31.412Z,6.37
2023-04-07T04:44:31.446Z,6.36
2023-04-07T04:45:31.412Z,6.38
2023-04-07T04:46:32.238Z,6.38
2023-04-07T04:47:31.601Z,6.40
2023-04-07T04:48:31.467Z,6.38
2023-04-07T04:49:31.370Z,6.40
2023-04-07T04:50:31.355Z,6.41
2023-04-07T04:51:31.349Z,6.43
2023-04-07T04:52:31.331Z,6.41
2023-04-07T04:53:32.059Z,6.43
2023-04-07T04:54:31.324Z,6.40
2023-04-07T04:55:31.343Z,6.40
2023-04-07T04:56:31.276Z,6.41
2023-04-07T04:57:31.239Z,6.41
2023-04-07T04:58:31.256Z,6.41
2023-04-07T04:59:31.263Z,6.41
2023-04-07T05:00:31.266Z,6.41
2023-04-07T05:01:33.369Z,6.40
2023-04-07T05:02:31.461Z,6.41
2023-04-07T05:03:31.418Z,6.43
2023-04-07T05:04:31.331Z,6.41
2023-04-07T05:05:31.155Z,6.43
2023-04-07T05:06:31.174Z,6.41
2023-04-07T05:07:31.158Z,6.43
2023-04-07T05:08:31.134Z,6.43
2023-04-07T05:09:31.140Z,6.43
2023-04-07T05:10:31.116Z,6.44
2023-04-07T05:11:31.098Z,6.44
2023-04-07T05:12:31.392Z,6.44
2023-04-07T05:13:31.706Z,6.43
2023-04-07T05:14:31.066Z,6.44
2023-04-07T05:15:31.102Z,6.46
2023-04-07T05:16:31.102Z,6.46
2023-04-07T05:17:31.036Z,6.49
2023-04-07T05:18:31.021Z,6.51
2023-04-07T05:19:31.102Z,6.51
2023-04-07T05:20:31.004Z,6.51
2023-04-07T05:21:30.997Z,6.54
2023-04-07T05:22:31.086Z,6.54
2023-04-07T05:23:30.971Z,6.55
2023-04-07T05:24:31.031Z,6.56
2023-04-07T05:25:30.998Z,6.58
2023-04-07T05:26:30.939Z,6.58
2023-04-07T05:27:30.972Z,6.56
2023-04-07T05:28:30.961Z,6.55
2023-04-07T05:29:30.967Z,6.55
2023-04-07T05:30:30.911Z,6.56
2023-04-07T05:31:30.957Z,6.56
2023-04-07T05:32:30.932Z,6.56
2023-04-07T05:33:30.855Z,6.55
2023-04-07T05:34:30.843Z,6.55
2023-04-07T05:35:30.836Z,6.58
2023-04-07T05:36:30.894Z,6.55
2023-04-07T05:37:30.904Z,6.54
2023-04-07T05:38:30.855Z,6.51
2023-04-07T05:39:30.818Z,6.49
2023-04-07T05:40:30.843Z,6.49
2023-04-07T05:41:30.784Z,6.51
2023-04-07T05:42:30.795Z,6.49
2023-04-07T05:43:30.743Z,6.46
2023-04-07T05:44:30.773Z,6.48
2023-04-07T05:45:30.735Z,6.48
2023-04-07T05:46:30.810Z,6.51
2023-04-07T05:47:30.713Z,6.52
2023-04-07T05:48:31.543Z,6.54
2023-04-07T05:49:30.794Z,6.56
2023-04-07T05:50:30.695Z,6.58
2023-04-07T05:51:30.666Z,6.59
2023-04-07T05:52:30.674Z,6.59
2023-04-07T05:53:30.684Z,6.59
2023-04-07T05:54:30.683Z,6.58
2023-04-07T05:55:30.653Z,6.61
2023-04-07T05:56:30.695Z,6.61
2023-04-07T05:57:30.650Z,6.64
2023-04-07T05:58:30.654Z,6.66
2023-04-07T05:59:30.578Z,6.66
2023-04-07T06:00:30.602Z,6.70
2023-04-07T06:01:30.566Z,6.71
2023-04-07T06:02:30.647Z,6.73
2023-04-07T06:03:30.717Z,6.74
2023-04-07T06:04:30.557Z,6.77
2023-04-07T06:05:30.566Z,6.79
2023-04-07T06:06:30.656Z,6.80
2023-04-07T06:07:30.499Z,6.81
2023-04-07T06:08:30.615Z,6.81
2023-04-07T06:09:30.482Z,6.87
2023-04-07T06:10:30.456Z,6.87
2023-04-07T06:11:30.438Z,6.91
2023-04-07T06:12:30.440Z,6.92
2023-04-07T06:13:30.416Z,6.91
2023-04-07T06:14:30.474Z,6.88
2023-04-07T06:15:31.415Z,6.89
2023-04-07T06:16:30.463Z,6.91
2023-04-07T06:17:30.388Z,6.92
2023-04-07T06:18:30.421Z,6.95
2023-04-07T06:19:30.455Z,6.97
2023-04-07T06:20:30.386Z,6.97
2023-04-07T06:21:30.411Z,6.97
2023-04-07T06:22:30.281Z,6.98
2023-04-07T06:23:30.387Z,6.99
2023-04-07T06:24:30.296Z,7.03
2023-04-07T06:25:30.429Z,7.03
2023-04-07T06:26:30.220Z,7.03
2023-04-07T06:27:30.487Z,7.05
2023-04-07T06:28:30.349Z,7.05
2023-04-07T06:29:30.291Z,7.02
2023-04-07T06:30:30.228Z,7.02
2023-04-07T06:31:30.345Z,7.03
2023-04-07T06:32:30.199Z,7.03
2023-04-07T06:33:30.205Z,6.99
2023-04-07T06:34:30.184Z,6.97
2023-04-07T06:35:30.232Z,6.97
2023-04-07T06:36:30.140Z,6.98
2023-04-07T06:37:30.131Z,6.98
2023-04-07T06:38:30.170Z,7.02
2023-04-07T06:39:30.178Z,7.05
2023-04-07T06:40:31.002Z,7.05
2023-04-07T06:41:30.154Z,7.03
2023-04-07T06:42:30.059Z,7.02
2023-04-07T06:43:30.207Z,6.99
2023-04-07T06:44:30.057Z,6.99
2023-04-07T06:45:30.061Z,6.99
2023-04-07T06:46:30.060Z,6.99
2023-04-07T06:47:30.121Z,6.99
2023-04-07T06:48:30.310Z,6.98
2023-04-07T06:49:30.088Z,7.02
2023-04-07T06:50:30.013Z,7.02
2023-04-07T06:51:30.026Z,6.99
2023-04-07T06:52:29.998Z,7.03
2023-04-07T06:53:29.997Z,7.06
2023-04-07T06:54:30.071Z,7.09
2023-04-07T06:55:30.011Z,7.12
2023-04-07T06:56:29.920Z,7.16
2023-04-07T06:57:29.916Z,7.20
2023-04-07T06:58:29.871Z,7.24
2023-04-07T06:59:29.931Z,7.28
2023-04-07T07:00:30.041Z,7.32
2023-04-07T07:01:29.951Z,7.35
2023-04-07T07:02:30.026Z,7.40
2023-04-07T07:03:29.942Z,7.45
2023-04-07T07:04:29.956Z,7.49
2023-04-07T07:05:30.550Z,7.48
2023-04-07T07:06:29.829Z,7.49
2023-04-07T07:07:29.818Z,7.50
2023-04-07T07:08:29.837Z,7.52
2023-04-07T07:09:29.766Z,7.55
2023-04-07T07:10:29.813Z,7.58
2023-04-07T07:11:29.760Z,7.63
2023-04-07T07:12:29.764Z,7.64
2023-04-07T07:13:29.795Z,7.69
2023-04-07T07:14:29.763Z,7.74
2023-04-07T07:15:29.813Z,7.77
2023-04-07T07:16:30.485Z,7.80
2023-04-07T07:17:29.728Z,7.82
2023-04-07T07:18:31.523Z,7.83
2023-04-07T07:19:29.664Z,7.82
2023-04-07T07:20:29.653Z,7.86
2023-04-07T07:21:29.846Z,7.87
2023-04-07T07:22:29.614Z,7.89
2023-04-07T07:23:29.627Z,7.89
2023-04-07T07:24:29.592Z,7.92
2023-04-07T07:25:29.747Z,7.95
2023-04-07T07:26:29.597Z,7.97
2023-04-07T07:27:29.622Z,7.98
2023-04-07T07:28:29.544Z,8.01
2023-04-07T07:29:29.561Z,8.04
2023-04-07T07:30:30.287Z,8.07
2023-04-07T07:31:29.663Z,8.08
2023-04-07T07:32:29.584Z,8.11
2023-04-07T07:33:29.558Z,8.12
2023-04-07T07:34:29.460Z,8.12
2023-04-07T07:35:29.511Z,8.15
2023-04-07T07:36:29.442Z,8.18
2023-04-07T07:37:29.496Z,8.19
2023-04-07T07:38:29.427Z,8.19
2023-04-07T07:39:29.486Z,8.20
2023-04-07T07:40:29.410Z,8.19
2023-04-07T07:41:29.534Z,8.20
2023-04-07T07:42:29.542Z,8.19
2023-04-07T07:43:29.492Z,8.18
2023-04-07T07:44:31.964Z,8.18
2023-04-07T07:45:29.473Z,8.20
2023-04-07T07:46:29.383Z,8.26
2023-04-07T07:47:29.536Z,8.22
2023-04-07T07:48:29.399Z,8.22
2023-04-07T07:49:29.375Z,8.20
2023-04-07T07:50:29.307Z,8.23
2023-04-07T07:51:29.399Z,8.29
2023-04-07T07:52:29.378Z,8.33
2023-04-07T07:53:29.373Z,8.36
2023-04-07T07:54:29.303Z,8.40
2023-04-07T07:55:29.291Z,8.45
2023-04-07T07:56:29.348Z,8.50
2023-04-07T07:57:29.294Z,8.55
2023-04-07T07:58:29.244Z,8.61
2023-04-07T07:59:29.226Z,8.62
2023-04-07T08:00:29.246Z,8.66
2023-04-07T08:01:29.252Z,8.73
2023-04-07T08:02:29.320Z,8.76
2023-04-07T08:03:29.362Z,8.74
2023-04-07T08:04:29.181Z,8.71
2023-04-07T08:05:29.195Z,8.61
2023-04-07T08:06:29.099Z,8.62
2023-04-07T08:07:29.239Z,8.58
2023-04-07T08:08:29.120Z,8.52
2023-04-07T08:09:29.166Z,8.52
2023-04-07T08:10:29.446Z,8.53
2023-04-07T08:11:29.129Z,8.53
2023-04-07T08:12:29.066Z,8.53
2023-04-07T08:13:29.072Z,8.53
2023-04-07T08:14:29.015Z,8.55
2023-04-07T08:15:29.059Z,8.58
2023-04-07T08:16:29.023Z,8.61
2023-04-07T08:17:29.035Z,8.63
2023-04-07T08:18:28.961Z,8.65
2023-04-07T08:19:29.015Z,8.68
2023-04-07T08:20:28.980Z,8.63
2023-04-07T08:21:28.982Z,8.59
2023-04-07T08:22:28.922Z,8.56
2023-04-07T08:23:28.944Z,8.55
2023-04-07T08:24:28.939Z,8.55
2023-04-07T08:25:28.912Z,8.56
2023-04-07T08:26:28.871Z,8.58
2023-04-07T08:27:28.895Z,8.62
2023-04-07T08:28:28.918Z,8.65
2023-04-07T08:29:30.619Z,8.68
2023-04-07T08:30:28.849Z,8.73
2023-04-07T08:31:29.511Z,8.70
2023-04-07T08:32:28.874Z,8.68
2023-04-07T08:33:28.821Z,8.66
2023-04-07T08:34:28.816Z,8.63
2023-04-07T08:35:28.853Z,8.62
2023-04-07T08:36:28.793Z,8.62
2023-04-07T08:37:28.761Z,8.59
2023-04-07T08:38:28.776Z,8.58
2023-04-07T08:39:28.759Z,8.59
2023-04-07T08:40:28.887Z,8.59
2023-04-07T08:41:28.824Z,8.61
2023-04-07T08:42:28.706Z,8.55
2023-04-07T08:43:28.734Z,8.50
2023-04-07T08:44:28.693Z,8.47
2023-04-07T08:45:28.713Z,8.48
2023-04-07T08:46:28.702Z,8.48
2023-04-07T08:47:28.912Z,8.45
2023-04-07T08:48:28.695Z,8.48
2023-04-07T08:49:28.636Z,8.47
2023-04-07T08:50:28.680Z,8.50
2023-04-07T08:51:28.697Z,8.50
2023-04-07T08:52:28.605Z,8.50
2023-04-07T08:53:28.690Z,8.53
2023-04-07T08:54:28.566Z,8.53
2023-04-07T08:55:28.597Z,8.56
2023-04-07T08:56:28.588Z,8.58
2023-04-07T08:57:28.586Z,8.63
2023-04-07T08:58:28.537Z,8.66
2023-04-07T08:59:28.656Z,8.70
2023-04-07T09:00:28.532Z,8.71
2023-04-07T09:01:28.590Z,8.73
2023-04-07T09:02:29.053Z,8.73
2023-04-07T09:03:28.572Z,8.71
2023-04-07T09:04:28.459Z,8.74
2023-04-07T09:05:28.595Z,8.70
2023-04-07T09:06:28.437Z,8.71
2023-04-07T09:07:28.444Z,8.71
2023-04-07T09:08:28.399Z,8.71
2023-04-07T09:09:28.439Z,8.73
2023-04-07T09:10:28.377Z,8.68
2023-04-07T09:11:28.418Z,8.71
2023-04-07T09:12:28.412Z,8.76
2023-04-07T09:13:28.445Z,8.79
2023-04-07T09:14:28.377Z,8.79
2023-04-07T09:15:28.359Z,8.79
2023-04-07T09:16:28.360Z,8.80
2023-04-07T09:17:28.372Z,8.81
2023-04-07T09:18:29.133Z,8.84
2023-04-07T09:19:28.308Z,8.80
2023-04-07T09:20:28.312Z,8.81
2023-04-07T09:21:28.983Z,8.81
2023-04-07T09:22:28.575Z,8.79
2023-04-07T09:23:28.577Z,8.79
2023-04-07T09:24:28.234Z,8.81
2023-04-07T09:25:28.335Z,8.80
2023-04-07T09:26:28.257Z,8.79
2023-04-07T09:27:28.208Z,8.66
2023-04-07T09:28:28.181Z,8.56
2023-04-07T09:29:28.243Z,8.58
2023-04-07T09:30:28.174Z,8.61
2023-04-07T09:31:28.193Z,8.66
2023-04-07T09:32:28.178Z,8.65
2023-04-07T09:33:28.207Z,8.63
2023-04-07T09:34:28.125Z,8.59
2023-04-07T09:35:28.157Z,8.62
2023-04-07T09:36:28.090Z,8.66
2023-04-07T09:37:28.198Z,8.68
2023-04-07T09:38:28.075Z,8.74
2023-04-07T09:39:28.076Z,8.83
2023-04-07T09:40:28.058Z,8.87
2023-04-07T09:41:28.116Z,8.96
2023-04-07T09:42:28.287Z,9.01
2023-04-07T09:43:28.048Z,9.04
2023-04-07T09:44:28.012Z,9.05
2023-04-07T09:45:34.626Z,9.05
2023-04-07T09:46:29.051Z,9.11
2023-04-07T09:47:28.001Z,9.13
2023-04-07T09:48:28.025Z,9.18
2023-04-07T09:49:27.963Z,9.21
2023-04-07T09:50:27.920Z,9.28
2023-04-07T09:51:27.947Z,9.33
2023-04-07T09:52:27.908Z,9.42
2023-04-07T09:53:27.916Z,9.46
2023-04-07T09:54:27.917Z,9.50
2023-04-07T09:55:27.906Z,9.56
2023-04-07T09:56:27.863Z,9.58
2023-04-07T09:57:27.913Z,9.61
2023-04-07T09:58:27.850Z,9.64
2023-04-07T09:59:27.857Z,9.58
2023-04-07T10:00:27.913Z,9.64
2023-04-07T10:01:27.932Z,9.68
2023-04-07T10:02:28.707Z,9.74
2023-04-07T10:03:27.943Z,9.83
2023-04-07T10:04:27.837Z,9.78
2023-04-07T10:05:27.800Z,9.78
2023-04-07T10:06:27.824Z,9.78
2023-04-07T10:07:27.788Z,9.78
2023-04-07T10:08:27.760Z,9.81
2023-04-07T10:09:27.852Z,9.86
2023-04-07T10:10:27.715Z,9.90
2023-04-07T10:11:27.734Z,9.90
2023-04-07T10:12:27.679Z,9.97
2023-04-07T10:13:27.698Z,10.04
2023-04-07T10:14:27.791Z,10.09
2023-04-07T10:15:27.930Z,10.15
2023-04-07T10:16:28.686Z,10.20
2023-04-07T10:17:27.958Z,10.25
2023-04-07T10:18:27.623Z,10.23
2023-04-07T10:19:27.629Z,10.25
2023-04-07T10:20:27.653Z,10.23
2023-04-07T10:21:27.628Z,10.22
2023-04-07T10:22:27.604Z,10.17
2023-04-07T10:23:28.408Z,10.07
2023-04-07T10:24:28.485Z,9.97
2023-04-07T10:25:28.646Z,9.96
2023-04-07T10:26:27.697Z,9.99
2023-04-07T10:27:27.832Z,10.05
2023-04-07T10:28:27.573Z,10.04
2023-04-07T10:29:27.552Z,10.07
2023-04-07T10:30:27.979Z,10.15
2023-04-07T10:31:27.656Z,10.18
2023-04-07T10:32:27.611Z,10.25
2023-04-07T10:33:27.468Z,10.26
2023-04-07T10:34:27.794Z,10.23
2023-04-07T10:35:28.313Z,10.30
2023-04-07T10:36:27.968Z,10.38
2023-04-07T10:37:27.622Z,10.48
2023-04-07T10:38:27.537Z,10.60
2023-04-07T10:39:27.471Z,10.70
2023-04-07T10:40:27.594Z,10.81
2023-04-07T10:41:27.397Z,10.89
2023-04-07T10:42:27.563Z,11.02
2023-04-07T10:43:27.751Z,11.11
2023-04-07T10:44:27.765Z,11.18
2023-04-07T10:45:28.037Z,11.22
2023-04-07T10:46:27.513Z,11.25
2023-04-07T10:47:27.364Z,11.25
2023-04-07T10:48:27.423Z,11.25
2023-04-07T10:49:27.344Z,11.24
2023-04-07T10:50:27.731Z,11.19
2023-04-07T10:51:27.391Z,11.14
2023-04-07T10:52:30.216Z,10.92
2023-04-07T10:53:28.951Z,10.84
2023-04-07T10:54:29.213Z,10.73
2023-04-07T10:55:28.054Z,10.60
2023-04-07T10:56:27.357Z,10.52
2023-04-07T10:57:27.469Z,10.48
2023-04-07T10:58:27.587Z,10.44
2023-04-07T10:59:27.200Z,10.40
2023-04-07T11:00:27.232Z,10.41
2023-04-07T11:01:27.271Z,10.42
2023-04-07T11:02:27.414Z,10.40
2023-04-07T11:03:27.226Z,10.32
2023-04-07T11:04:27.259Z,10.33
2023-04-07T11:05:27.133Z,10.30
2023-04-07T11:06:27.878Z,10.30
2023-04-07T11:07:27.176Z,10.34
2023-04-07T11:08:27.143Z,10.26
2023-04-07T11:09:27.174Z,10.18
2023-04-07T11:10:27.202Z,10.02
2023-04-07T11:11:27.128Z,9.93
2023-04-07T11:12:27.116Z,9.89
2023-04-07T11:13:27.016Z,9.79
2023-04-07T11:14:27.009Z,9.78
2023-04-07T11:15:27.059Z,9.79
2023-04-07T11:16:27.013Z,9.81
2023-04-07T11:17:27.044Z,9.74
2023-04-07T11:18:26.958Z,9.75
2023-04-07T11:19:26.938Z,9.78
2023-04-07T11:20:27.014Z,9.79
2023-04-07T11:21:26.934Z,9.71
2023-04-07T11:22:30.258Z,9.72
2023-04-07T11:23:26.980Z,9.75
2023-04-07T11:24:26.913Z,9.75
2023-04-07T11:25:27.822Z,9.75
2023-04-07T11:26:26.880Z,9.79
2023-04-07T11:27:27.024Z,9.83
2023-04-07T11:28:26.866Z,9.87
2023-04-07T11:29:28.037Z,9.87
2023-04-07T11:30:27.063Z,9.89
2023-04-07T11:31:26.863Z,9.89
2023-04-07T11:32:27.017Z,9.79
2023-04-07T11:33:26.831Z,9.71
2023-04-07T11:34:26.804Z,9.66
2023-04-07T11:35:26.746Z,9.56
2023-04-07T11:36:26.771Z,9.53
2023-04-07T11:37:26.870Z,9.51
2023-04-07T11:38:27.035Z,9.51
2023-04-07T11:39:26.707Z,9.50
2023-04-07T11:40:26.796Z,9.51
2023-04-07T11:41:26.691Z,9.51
2023-04-07T11:42:27.521Z,9.54
2023-04-07T11:43:27.387Z,9.57
2023-04-07T11:44:27.579Z,9.53
2023-04-07T11:45:27.560Z,9.46
2023-04-07T11:46:27.507Z,9.38
2023-04-07T11:47:26.734Z,9.39
2023-04-07T11:48:26.645Z,9.29
2023-04-07T11:49:26.643Z,9.28
2023-04-07T11:50:26.665Z,9.31
2023-04-07T11:51:26.659Z,9.32
2023-04-07T11:52:26.590Z,9.39
2023-04-07T11:53:26.576Z,9.39
2023-04-07T11:54:26.732Z,9.40
2023-04-07T11:55:26.679Z,9.46
2023-04-07T11:56:26.589Z,9.53
2023-04-07T11:57:26.585Z,9.58
2023-04-07T11:58:26.568Z,9.68
2023-04-07T11:59:26.540Z,9.75
2023-04-07T12:00:26.537Z,9.84
2023-04-07T12:01:26.479Z,9.91
2023-04-07T12:02:26.716Z,9.99
2023-04-07T12:03:26.555Z,10.05
2023-04-07T12:04:26.630Z,10.09
2023-04-07T12:05:26.605Z,10.12
2023-04-07T12:06:26.533Z,10.20
2023-04-07T12:07:27.958Z,10.26
2023-04-07T12:08:26.491Z,10.32
2023-04-07T12:09:26.469Z,10.36
2023-04-07T12:10:26.430Z,10.36
2023-04-07T12:11:26.508Z,10.33
2023-04-07T12:12:26.446Z,10.15
2023-04-07T12:13:26.345Z,10.12
2023-04-07T12:14:26.440Z,10.12
2023-04-07T12:15:26.417Z,10.18
2023-04-07T12:16:26.443Z,10.20
2023-04-07T12:17:26.430Z,10.22
2023-04-07T12:18:26.300Z,10.26
2023-04-07T12:19:26.396Z,10.29
2023-04-07T12:20:26.375Z,10.33
2023-04-07T12:21:26.363Z,10.38
2023-04-07T12:22:26.279Z,10.36
2023-04-07T12:23:26.257Z,10.30
2023-04-07T12:24:26.247Z,10.33
2023-04-07T12:25:26.220Z,10.33
2023-04-07T12:26:26.378Z,10.33
2023-04-07T12:27:39.626Z,10.36
2023-04-07T12:28:27.204Z,10.42
2023-04-07T12:29:26.251Z,10.45
2023-04-07T12:30:26.337Z,10.51
2023-04-07T12:31:26.246Z,10.55
2023-04-07T12:32:26.240Z,10.60
2023-04-07T12:33:26.166Z,10.59
2023-04-07T12:34:26.101Z,10.55
2023-04-07T12:35:26.168Z,10.55
2023-04-07T12:36:26.247Z,10.41
2023-04-07T12:37:26.078Z,10.38
2023-04-07T12:38:26.186Z,10.36
2023-04-07T12:39:26.049Z,10.38
2023-04-07T12:40:26.185Z,10.40
2023-04-07T12:41:26.012Z,10.36
2023-04-07T12:42:26.304Z,10.36
2023-04-07T12:43:26.050Z,10.45
2023-04-07T12:44:26.162Z,10.53
2023-04-07T12:45:26.038Z,10.63
2023-04-07T12:46:26.812Z,10.76
2023-04-07T12:47:26.045Z,10.86
2023-04-07T12:48:25.995Z,10.97
2023-04-07T12:49:26.064Z,11.06
2023-04-07T12:50:26.055Z,11.18
2023-04-07T12:51:25.964Z,11.27
2023-04-07T12:52:25.996Z,11.35
2023-04-07T12:53:25.863Z,11.40
2023-04-07T12:54:25.883Z,11.43
2023-04-07T12:55:25.938Z,11.49
2023-04-07T12:56:26.233Z,11.46
2023-04-07T12:57:25.862Z,11.42
2023-04-07T12:58:25.954Z,11.39
2023-04-07T12:59:25.889Z,11.35
2023-04-07T13:00:25.851Z,11.29
2023-04-07T13:01:25.875Z,11.28
2023-04-07T13:02:26.000Z,11.29
2023-04-07T13:03:25.963Z,11.25
2023-04-07T13:04:26.149Z,11.15
2023-04-07T13:05:26.366Z,11.14
2023-04-07T13:06:25.948Z,11.02
2023-04-07T13:07:25.795Z,10.96
2023-04-07T13:08:25.792Z,10.94
2023-04-07T13:09:26.161Z,10.96
2023-04-07T13:10:25.816Z,11.00
2023-04-07T13:11:25.759Z,11.00
2023-04-07T13:12:25.850Z,10.82
2023-04-07T13:13:25.730Z,10.76
2023-04-07T13:14:25.667Z,10.68